Share

Hoffman, MN (56339)

Hoffman MN (KMNHOFFM2) Elev 1240 ft | 45.83 °N, 95.78 °W | Change Station

Current weather conditions updated 1 minute ago

Clear
Clear
25.0 °F
Feels Like 25.0 °F
N
0.7
Wind Variable Wind from NW
Gusts 3.1 mph
Sunrise 6:30 AM
Sunset 8:15 PM
Moon Waning Gibbous

Tomorrow is forecast to be Warmer than today.

Pressure 29.97 in
Visibility 10.0 miles
Clouds Clear
Dew Point 14.8 °F
Humidity 65%
Rainfall 0.00 in
Snow Depth Not available.
UV 0 out of 16
Pollen 10.70 out of 12
Air Quality Not available.
Flu Activity Sporadic
METAR KY63 200113Z AUTO 30004KT 10SM CLR 14/01 A2997 RMK AO2 T01430011

More Conditions Fewer Conditions

Pressure 29.97 in
Visibility 10.0 miles
Clouds Clear
Dew Point 14.8 °F
Humidity 65%
Rainfall 0.00 in
Snow Depth Not available.
UV 0 out of 16
Pollen 10.70 out of 12
Air Quality Not available.
Flu Activity Sporadic
METAR KY63 200113Z AUTO 30004KT 10SM CLR 14/01 A2997 RMK AO2 T01430011

More Conditions Fewer Conditions

10-Day Weather Forecast

Almanac

Astronomy

Apr. 19, 2014 Rise Set
Actual Time 6:30 AM CDT 8:15 PM CDT
Civil Twilight 5:58 AM CDT 8:46 PM CDT
Nautical Twilight 5:20 AM CDT 9:25 PM CDT
Astronomical Twilight 4:38 AM CDT 10:07 PM CDT
Moon 12:07 AM CDT (4/19) 9:42 AM CDT (4/19)
Length of Visible Light 14h 48m
Length of Day
13h 45m
Tomorrow will be 3m 2s longer.
Waning Gibbous, 75% of the Moon is Illuminated
Today
Waning Gibbous
Apr 22
Last Quarter
Apr 29
New
May 6
First Quarter
May 14
Full

Today's Extremes

State Highs State Lows

Community

  • White-Crowned Sparrow
    White-Crowned Sparrow
  • New Day
    New Day
  • Happy Easter!
    Happy Easter!
  • poppy bloom near Mazar-e-Sharif
    poppy bloom near Mazar-e-Sharif
  • Happy Easter WU friends!!!!
    Happy Easter WU friends!!!!

WunderPhotos

Upload Photos

1,703,016 photos uploaded!

WunderBlogs® & News

Nearby

Snow Depth

Station Depth Elevation
No new snow has been reported.

Coastal Water Temperatures

Place Temperature
No Stations Reporting

Earthquake Activity

City Distance Mag. Time & Date
No recent earthquake activity has been reported nearby.
Minimum magnitude displayed is 2.5.

Nearby Weather Stations

Station Location Temp. Dew Point Humidity Wind Precip. Elev Updated Type
Gardonville Co-op Telephone Assn, Brandon, MN 59.8 °F 35 °F 39% WNW  at  7.0 mph 0.00 in / hr 1411 ft 8:20 PM CDT Rapid Fire
KMGK (Magic 107.1) FM, Glenwood, MN 57.3 °F 35 °F 43% WSW  at  0.0 mph 0.00 in / hr 1168 ft 8:20 PM CDT Rapid Fire

Show More Stations Show Fewer Stations

What do you think?

We're not finished. Please let us know what you like, what you don't like, and what you are still missing.